• Join FlightAware (Why Join?)
  • Login
  • US Flag 
12:59AM EST


 

Airport Tracker/Info


-or-


 

Live Flight TrackerFlight Track Log ✈ EJM918 ✈ 17-Jun-2013 ✈ KHPN - KBDL

Flight Track Log - Related Links

Times and Time Zones

All times are in EDT time to prevent confusion due to time zone crossing. See the EJM918 flight status page for this flight to view local times or setup timezone preferences in your user account.

Time Position Orientation Groundspeed Altitude Reporting Facility
EDT Latitude Longitude Course Direction KTS MPH feet Rate Location/Type
05:52PM 41.1320 -73.8630 306° West 222 255 7,800  Level FlightAware
05:52PM 41.1520 -73.8860 319° Northwest 243 280 9,600 3,420 Climbing FlightAware
05:53PM 41.1660 -73.8900 348° North 270 311 10,000 720 Climbing FlightAware
05:53PM 41.1990 -73.8620 33° Northeast 302 348 10,100 60 Climbing FlightAware
05:54PM 41.2210 -73.7820 70° East 310 357 10,100  Level FlightAware
05:55PM 41.2440 -73.7050 68° East 352 405 10,100  Level FlightAware
05:55PM 41.2660 -73.6300 69° East 339 390 10,100  Level FlightAware
05:56PM 41.3050 -73.5480 58° Northeast 330 380 10,100  Level FlightAware
05:57PM 41.3600 -73.4750 45° Northeast 320 368 10,100  Level FlightAware
05:58PM 41.3920 -73.4320 45° Northeast 320 368 10,100  Level FlightAware
06:00PM 41.4591 -73.3412 45° Northeast  Level Estimated
06:01PM 41.4929 -73.2954 45° Northeast  Level Estimated
06:02PM 41.5267 -73.2495 45° Northeast  Level Estimated
06:03PM 41.5605 -73.2036 45° Northeast  Level Estimated
06:04PM 41.5942 -73.1576 46° Northeast  Level Estimated
06:05PM 41.6279 -73.1115 46° Northeast  Level Estimated
06:06PM 41.6617 -73.0655 46° Northeast  Level Estimated
06:07PM 41.6954 -73.0193 46° Northeast  Level Estimated
06:08PM 41.7290 -72.9731 46° Northeast  Level Estimated
06:09PM 41.7627 -72.9269 46° Northeast  Level Estimated
06:10PM 41.7963 -72.8806 46° Northeast  Level Estimated
06:11PM 41.8300 -72.8343 46° Northeast  Level Estimated
06:12PM 41.8636 -72.7879 46° Northeast  Level Estimated
06:13PM 41.8971 -72.7415 46° Northeast  Level Estimated
06:14PM 41.9307 -72.6951 46° Northeast  Level Estimated
06:15PM 41.9392 -72.6834 46° Northeast  Level Estimated
06:16PM 41.9392 -72.6834 191° South  Level Estimated
06:17PM 41.9392 -72.6834 191° South  Level Estimated
06:18PM 41.9392 -72.6834 191° South  Level Estimated
06:19PM 41.9392 -72.6834 191° South  Level Estimated
06:20PM 41.9392 -72.6834 191° South  Level Estimated
06:21PM 41.9392 -72.6834 191° South  Level Estimated
06:22PM 41.9392 -72.6834 191° South  Level Estimated
06:23PM 41.9392 -72.6834 191° South  Level Estimated
06:24PM 41.9392 -72.6834 191° South  Level Estimated
06:25PM 41.9392 -72.6834 191° South  Level Estimated
06:26PM 41.9392 -72.6834 191° South  Level Estimated
06:27PM 41.9392 -72.6834 191° South  Level Estimated
06:28PM 41.9392 -72.6834 191° South  Level Estimated
06:29PM 41.9392 -72.6834 191° South  Level Estimated
06:30PM 41.9392 -72.6834 191° South  Level Estimated
06:31PM 41.9392 -72.6834 191° South  Level Estimated
06:32PM 41.9392 -72.6834 191° South  Level Estimated
06:33PM 41.9392 -72.6834 191° South  Level Estimated
06:34PM 41.9392 -72.6834 191° South  Level Estimated
06:35PM 41.9392 -72.6834 191° South  Level Estimated